Aviation Digital Data Service (ADDS)

Output produced by METARs form (0625 UTC 22 October 2018)
found at http://www.aviationweather.gov/metar/data/
 
METAR text: RJTI 220600Z VRB01KT 9999 FEW030 SCT/// 21/08 Q1022
Conditions at: RJTI (TOKYO HELIPORT , JP) observed 0600 UTC 22 October 2018
Temperature: 21.0°C (70°F)
Dewpoint: 8.0°C (46°F) [RH = 43%]
Pressure (altimeter): 30.18 inches Hg (1022.0 mb)
Winds: variable direction winds at 1 MPH (1 knots; 0.5 m/s)
Visibility: 6 or more miles (10+ km)
Ceiling: at least 12,000 feet AGL
Clouds: few clouds at 3000 feet AGL
Weather: no significant weather observed at this time